»·PEaware :: QXE2270 KSEA-KGPI

QXE2270 :: KSEA-KGPI

FLIGHT INFORMATION

Flight Status: Arrived
Operator:
Horizon Air
More flights by this operator :: More flights under this callsign
Pilot: Trevel L P. (20826)
Aircraft: DEHAVILLAND DASH 8 400
(DH8D)
More flights by this aircraft type
Origin: KSEA Seattle-Tacoma Intl
United States
Destination: KGPI Glacier Park Intl
United States
More flights between these airports :: More routes between these airports
Route: SEA7 ZADON ZELAK ZIRAN ZOOMR
File this flight plan on PilotEdge
Remarks: RMK / SIMBRIEF
Altitude:
(Current/Filed)
23,000ft
Speed:
(Current/Filed)
319kts
Departed: 12-Feb-21 07:11 PM
Arrived: 12-Feb-21 08:20 PM
Distance/Time
Traveled:
328nm/1:09
Distance/Time
To Go:
Arrived

Flight Plot

Page will automatically refresh every two minutes.

Flight plan parsing failed; only flown route is shown


Map Options




Map Legend


Flown Route
Filed Route
Departure Airport
Arrival Airport
Navaid (VOR, NDB)
Fix

Horizontal Profiles

Position Reports

Time Latitude Longitude Heading Altitude Ground
Speed
12-Feb-21 18:42 47.446716 -122.303583 216 440ft 0kts
12-Feb-21 18:43 47.446716 -122.303583 216 440ft 0kts
12-Feb-21 18:44 47.446716 -122.303583 216 440ft 0kts
12-Feb-21 18:45 47.446716 -122.303583 216 440ft 0kts
12-Feb-21 18:46 47.446716 -122.303583 216 440ft 0kts
12-Feb-21 18:47 47.446716 -122.303583 216 440ft 0kts
12-Feb-21 18:48 47.446716 -122.303583 216 440ft 0kts
12-Feb-21 18:49 47.446716 -122.303583 216 440ft 0kts
12-Feb-21 18:50 47.446716 -122.303583 216 440ft 0kts
12-Feb-21 18:51 47.446716 -122.303583 216 440ft 0kts
12-Feb-21 18:52 47.446716 -122.303583 216 440ft 0kts
12-Feb-21 18:53 47.446716 -122.303583 216 440ft 0kts
12-Feb-21 18:54 47.446716 -122.303583 216 440ft 0kts
12-Feb-21 18:55 47.446716 -122.303583 216 440ft 0kts
12-Feb-21 18:57 47.446716 -122.303583 216 440ft 0kts
12-Feb-21 18:58 47.446716 -122.303583 216 440ft 0kts
12-Feb-21 18:59 47.446716 -122.303583 216 440ft 0kts
12-Feb-21 19:00 47.447171 -122.302967 246 440ft 3kts
12-Feb-21 19:01 47.447088 -122.302553 308 440ft 0kts
12-Feb-21 19:02 47.447088 -122.302553 308 440ft 0kts
12-Feb-21 19:03 47.447088 -122.302553 308 440ft 0kts
12-Feb-21 19:04 47.447095 -122.302566 308 440ft 0kts
12-Feb-21 19:05 47.446991 -122.306148 178 440ft 0kts
12-Feb-21 19:06 47.442237 -122.306117 179 440ft 0kts
12-Feb-21 19:07 47.437048 -122.306180 181 440ft 0kts
12-Feb-21 19:08 47.432913 -122.305556 180 440ft 0kts
12-Feb-21 19:09 47.431737 -122.307204 268 440ft 0kts
12-Feb-21 19:10 47.450015 -122.308363 0 731ft 40kts
12-Feb-21 19:11 47.495881 -122.313329 0 2999ft 56kts
12-Feb-21 19:12 47.553545 -122.312430 1 4813ft 94kts
12-Feb-21 19:13 47.627814 -122.312225 3 5062ft 134kts
12-Feb-21 19:13 47.676680 -122.286547 64 8169ft 82kts
12-Feb-21 19:14 47.667342 -122.202335 109 10674ft 80kts
12-Feb-21 19:16 47.641782 -122.087184 110 12629ft 106kts
12-Feb-21 19:16 47.621461 -121.998042 110 14061ft 117kts
12-Feb-21 19:17 47.595983 -121.887187 110 15505ft 130kts
12-Feb-21 19:18 47.569562 -121.771711 109 16809ft 141kts
12-Feb-21 19:19 47.560035 -121.647952 87 17986ft 152kts
12-Feb-21 19:20 47.559480 -121.519009 88 19078ft 161kts
12-Feb-21 19:21 47.557387 -121.387258 88 20034ft 171kts
12-Feb-21 19:22 47.555219 -121.253407 88 20905ft 179kts
12-Feb-21 19:23 47.552977 -121.118808 88 21664ft 186kts
12-Feb-21 19:24 47.550527 -120.981094 87 22373ft 192kts
12-Feb-21 19:25 47.547887 -120.841179 87 22948ft 200kts
12-Feb-21 19:26 47.544972 -120.695901 87 23078ft 217kts
12-Feb-21 19:27 47.541759 -120.545283 87 23196ft 231kts
12-Feb-21 19:28 47.538068 -120.390759 88 23261ft 242kts
12-Feb-21 19:29 47.530599 -120.233667 90 23276ft 252kts
12-Feb-21 19:30 47.522847 -120.074709 89 23281ft 259kts
12-Feb-21 19:31 47.515132 -119.914680 89 23277ft 265kts
12-Feb-21 19:32 47.507218 -119.753881 89 23267ft 268kts
12-Feb-21 19:33 47.499032 -119.592034 89 23258ft 271kts
12-Feb-21 19:34 47.490538 -119.430475 89 23251ft 272kts
12-Feb-21 19:35 47.481830 -119.268318 90 23251ft 273kts
12-Feb-21 19:36 47.472800 -119.106072 89 23253ft 274kts
12-Feb-21 19:37 47.463610 -118.943799 89 23247ft 275kts
12-Feb-21 19:38 47.454183 -118.781085 89 23240ft 275kts
12-Feb-21 19:39 47.445576 -118.635569 89 23231ft 276kts
12-Feb-21 19:40 47.435689 -118.473188 89 23218ft 392kts
12-Feb-21 19:41 47.427499 -118.310035 79 23201ft 346kts
12-Feb-21 19:42 47.460210 -118.163252 59 23182ft 315kts
12-Feb-21 19:43 47.495223 -118.017422 62 23170ft 296kts
12-Feb-21 19:44 47.529322 -117.870143 61 23162ft 285kts
12-Feb-21 19:45 47.563767 -117.723445 61 23157ft 278kts
12-Feb-21 19:46 47.597925 -117.577053 61 23159ft 274kts
12-Feb-21 19:47 47.631765 -117.430482 61 23176ft 271kts
12-Feb-21 19:48 47.665465 -117.283767 61 23206ft 268kts
12-Feb-21 19:49 47.699035 -117.136818 61 23208ft 268kts
12-Feb-21 19:50 47.732434 -116.989123 61 23200ft 268kts
12-Feb-21 19:51 47.765691 -116.841673 61 23193ft 268kts
12-Feb-21 19:52 47.798736 -116.693227 61 23192ft 268kts
12-Feb-21 19:53 47.831416 -116.546597 61 22350ft 276kts
12-Feb-21 19:54 47.863445 -116.402043 62 21353ft 282kts
12-Feb-21 19:55 47.894839 -116.258616 63 20350ft 283kts
12-Feb-21 19:56 47.925431 -116.117937 64 19349ft 281kts
12-Feb-21 19:57 47.955488 -115.979963 65 18363ft 322kts
12-Feb-21 19:58 47.984972 -115.842099 65 18175ft 290kts
12-Feb-21 19:59 48.015386 -115.698463 66 18182ft 274kts
12-Feb-21 20:00 48.045778 -115.554611 66 17610ft 271kts
12-Feb-21 20:01 48.075654 -115.413179 67 16855ft 267kts
12-Feb-21 20:02 48.104458 -115.274611 68 16105ft 262kts
12-Feb-21 20:03 48.132395 -115.139729 69 15241ft 258kts
12-Feb-21 20:04 48.159431 -115.008251 70 14315ft 253kts
12-Feb-21 20:05 48.185730 -114.881424 70 13306ft 247kts
12-Feb-21 20:06 48.212243 -114.759707 70 12351ft 239kts
12-Feb-21 20:07 48.236594 -114.652390 70 11342ft 224kts
12-Feb-21 20:08 48.258614 -114.557182 70 10332ft 210kts
12-Feb-21 20:09 48.279512 -114.467662 70 10001ft 184kts
12-Feb-21 20:10 48.298760 -114.384550 70 9994ft 155kts
12-Feb-21 20:11 48.278460 -114.317743 158 9667ft 158kts
12-Feb-21 20:12 48.224370 -114.350562 223 8737ft 186kts
12-Feb-21 20:13 48.169280 -114.379543 149 7890ft 198kts
12-Feb-21 20:14 48.174597 -114.301620 19 6161ft 219kts
12-Feb-21 20:15 48.228446 -114.310626 348 4655ft 222kts
12-Feb-21 20:16 48.269682 -114.297303 34 3572ft 197kts
12-Feb-21 20:17 48.301660 -114.264761 36 2992ft 150kts
12-Feb-21 20:18 48.312017 -114.252718 91 2984ft 54kts
12-Feb-21 20:19 48.312422 -114.251397 42 2984ft 0kts
12-Feb-21 20:20 48.313119 -114.248438 90 2984ft 0kts
12-Feb-21 20:21 48.312711 -114.247333 118 2984ft 0kts
12-Feb-21 20:22 48.312711 -114.247333 118 2984ft 0kts

Navigation Log

Ident Type
Flight plan parsing failed, navigation log unavailable